Fordyce, Nebraska
Current Conditions -  °F | °C
As of 3:35 AM on Saturday 20 Dec 2014 (Local Time) from KYKN Reporting Station
Overcast Overcast  
Wind Chill: 24°   Ceiling: 800
Heat Index: 32°   Visibility: 5mi
Dew Point: 28°   Wind: 9mph
Humidity: 87%   Direction: 210°SSW
Pressure: 30.07"   Gusts: NA
Location:  42.7°N, 97.36°W
Report Text: KYKN 200935Z AUTO 21008KT 5SM OVC008 00/M02 A3007 RMK AO1
Loading
Personal Weather Stations






























Interactive Weather Map New forecast layout! Learn more

10-Day Weather Forecast

Advertisements
Track Severe Weather on mobile